Time;durP1;ratioP1;P1;durP2;ratioP2;P2;SDS_P1;SDS_P2;PMS_P1;PMS_P2;Temp;Humidity;BMP_temperature;BMP_pressure;BME280_temperature;BME280_humidity;BME280_pressure;Samples;Min_cycle;Max_cycle;Signal;HPM_P1;HPM_P2
2022/07/26 00:00:40;;;;;;;4.53;2.72;;;;;;;27.48;45.21;101145.65;1732602;81;21464;-49
2022/07/26 00:03:07;;;;;;;5.62;2.42;;;;;;;27.45;45.26;101143.26;1700350;84;21003;-50
2022/07/26 00:05:37;;;;;;;5.97;2.92;;;;;;;27.42;45.48;101135.48;1733944;82;25240;-49
2022/07/26 00:08:11;;;;;;;5.00;2.40;;;;;;;27.40;45.61;101139.64;1734386;81;21075;-51
2022/07/26 00:10:42;;;;;;;5.42;2.87;;;;;;;27.37;45.80;101136.73;1732955;81;21058;-49
2022/07/26 00:13:09;;;;;;;3.33;2.52;;;;;;;27.36;45.93;101136.39;1731792;81;20987;-50
2022/07/26 00:15:36;;;;;;;4.65;3.10;;;;;;;27.36;45.94;101137.73;1721963;81;21019;-53
2022/07/26 00:18:05;;;;;;;3.83;2.27;;;;;;;27.36;45.99;101137.73;1733221;81;21015;-50
2022/07/26 00:20:32;;;;;;;7.15;3.22;;;;;;;27.36;46.00;101135.53;1733829;82;20999;-51
2022/07/26 00:22:59;;;;;;;8.53;2.60;;;;;;;27.36;45.93;101143.07;1700834;84;21499;-51
2022/07/26 00:25:26;;;;;;;3.83;2.62;;;;;;;27.37;45.89;101139.41;1700668;84;21023;-48
2022/07/26 00:27:53;;;;;;;4.17;2.90;;;;;;;27.35;46.02;101136.02;1698321;84;21066;-50
2022/07/26 00:30:21;;;;;;;7.20;3.33;;;;;;;27.34;46.12;101141.02;1697978;84;21034;-49
2022/07/26 00:32:48;;;;;;;6.60;3.00;;;;;;;27.33;46.29;101136.60;1698058;84;21046;-51
2022/07/26 00:35:15;;;;;;;5.15;2.55;;;;;;;27.31;46.28;101138.56;1697752;82;21069;-51
2022/07/26 00:37:42;;;;;;;2.37;2.15;;;;;;;27.29;46.46;101135.17;1698182;84;21040;-51
2022/07/26 00:40:11;;;;;;;2.90;2.33;;;;;;;27.27;46.66;101134.45;1707340;84;21050;-49
2022/07/26 00:42:38;;;;;;;3.00;2.40;;;;;;;27.25;46.94;101135.08;1730523;82;21038;-50
2022/07/26 00:45:06;;;;;;;3.22;2.75;;;;;;;27.24;47.16;101128.02;1728766;81;21464;-51
2022/07/26 00:47:33;;;;;;;8.00;2.80;;;;;;;27.22;47.34;101127.31;1731279;81;21019;-51
2022/07/26 00:50:00;;;;;;;5.50;2.60;;;;;;;27.21;47.49;101126.97;1731374;81;21030;-49
2022/07/26 00:52:27;;;;;;;3.72;2.80;;;;;;;27.19;47.46;101124.91;1732914;81;21023;-50
2022/07/26 00:54:55;;;;;;;2.58;2.25;;;;;;;27.19;47.69;101120.05;1701082;84;21006;-51
2022/07/26 00:57:23;;;;;;;3.72;2.50;;;;;;;27.18;47.85;101116.52;1734483;81;21042;-51
2022/07/26 00:59:49;;;;;;;3.90;2.40;;;;;;;27.19;47.92;101121.39;1732348;81;21054;-49
2022/07/26 01:02:16;;;;;;;7.15;2.70;;;;;;;27.16;48.08;101117.14;1733324;81;21035;-55
2022/07/26 01:04:43;;;;;;;3.77;2.52;;;;;;;27.17;48.21;101113.52;1734797;81;21007;-50
2022/07/26 01:07:11;;;;;;;6.45;2.40;;;;;;;27.17;48.35;101111.32;1677976;84;20994;-51
2022/07/26 01:09:38;;;;;;;4.30;2.33;;;;;;;27.16;48.35;101118.48;1700796;84;21510;-50
2022/07/26 01:12:07;;;;;;;6.10;2.37;;;;;;;27.18;48.07;101119.71;1698242;83;21115;-49
2022/07/26 01:14:36;;;;;;;3.60;2.60;;;;;;;27.18;47.90;101124.54;1685876;84;21038;-49
2022/07/26 01:17:03;;;;;;;4.20;2.20;;;;;;;27.19;48.02;101121.39;1698784;84;21522;-51
2022/07/26 01:19:30;;;;;;;5.00;3.72;;;;;;;27.17;47.85;101118.86;1701450;83;21104;-50
2022/07/26 01:21:57;;;;;;;7.20;2.80;;;;;;;27.17;47.83;101116.19;1701283;84;21022;-49
2022/07/26 01:24:23;;;;;;;5.10;2.77;;;;;;;27.17;47.87;101118.00;1722782;81;20992;-54
2022/07/26 01:26:50;;;;;;;3.45;3.08;;;;;;;27.17;48.00;101116.66;1733349;81;21523;-49
2022/07/26 01:29:17;;;;;;;5.37;2.90;;;;;;;27.17;47.85;101109.50;1700771;84;21010;-49
2022/07/26 01:31:44;;;;;;;4.90;3.30;;;;;;;27.16;47.70;101109.13;1700562;84;21010;-50
2022/07/26 01:34:12;;;;;;;5.00;2.90;;;;;;;27.14;47.57;101103.07;1704434;84;21026;-53
2022/07/26 01:36:40;;;;;;;3.83;3.00;;;;;;;27.10;46.85;101106.98;1699348;83;21046;-51
2022/07/26 01:39:07;;;;;;;3.60;2.75;;;;;;;27.09;46.17;101102.63;1698455;84;21069;-50
2022/07/26 01:41:34;;;;;;;4.17;2.60;;;;;;;27.07;46.07;101105.92;1736233;80;21057;-52
2022/07/26 01:44:01;;;;;;;3.05;2.75;;;;;;;27.05;46.29;101101.20;1734814;81;21480;-49
2022/07/26 01:46:28;;;;;;;4.12;2.72;;;;;;;27.03;46.14;101097.81;1744509;81;21540;-50
2022/07/26 01:48:55;;;;;;;4.72;2.58;;;;;;;27.01;46.35;101100.25;1732923;81;21042;-50
2022/07/26 01:51:22;;;;;;;4.20;2.75;;;;;;;26.98;46.59;101100.02;1698179;84;21550;-49
2022/07/26 01:53:49;;;;;;;3.83;2.62;;;;;;;26.95;46.76;101100.29;1701246;83;21015;-51
2022/07/26 01:56:15;;;;;;;5.95;2.50;;;;;;;26.93;46.99;101104.91;1734565;81;21031;-52
2022/07/26 01:58:42;;;;;;;4.08;2.45;;;;;;;26.90;47.04;101102.48;1731827;81;21011;-51
2022/07/26 02:01:08;;;;;;;6.92;2.42;;;;;;;26.86;46.92;101094.37;1732417;81;20959;-50
2022/07/26 02:03:35;;;;;;;6.53;3.35;;;;;;;26.83;46.98;101103.96;1732056;81;21090;-50
2022/07/26 02:06:03;;;;;;;5.62;2.52;;;;;;;26.81;47.15;101104.58;1732050;81;21015;-50
2022/07/26 02:08:30;;;;;;;4.37;2.40;;;;;;;26.79;46.91;101106.53;1676767;85;20998;-49
2022/07/26 02:11:00;;;;;;;3.67;2.20;;;;;;;26.77;46.35;101104.99;1694410;84;21050;-49
2022/07/26 02:13:39;;;;;;;3.75;2.65;;;;;;;26.74;45.70;101103.42;1696374;84;21015;-50
2022/07/26 02:16:09;;;;;;;3.08;2.15;;;;;;;26.72;45.52;101104.03;1694410;84;21019;-53
2022/07/26 02:18:39;;;;;;;5.72;2.72;;;;;;;26.71;45.54;101104.96;1697916;84;20987;-50
2022/07/26 02:21:06;;;;;;;6.70;2.20;;;;;;;26.70;45.16;101104.62;1698024;83;21514;-53
2022/07/26 02:23:33;;;;;;;4.33;2.65;;;;;;;26.66;44.86;101105.84;1697874;83;21062;-51
2022/07/26 02:26:00;;;;;;;5.05;2.45;;;;;;;26.62;44.53;101101.74;1699210;84;21054;-51
2022/07/26 02:28:28;;;;;;;2.35;2.12;;;;;;;26.59;44.88;101107.31;1700488;84;21038;-49
2022/07/26 02:30:54;;;;;;;2.45;1.90;;;;;;;26.54;44.77;101105.02;1733826;81;21035;-51
2022/07/26 02:33:21;;;;;;;4.40;2.98;;;;;;;26.52;44.90;101112.82;1732521;81;21519;-50
2022/07/26 02:35:47;;;;;;;4.05;2.47;;;;;;;26.48;45.40;101114.87;1733500;82;20998;-50
2022/07/26 02:38:15;;;;;;;3.27;2.60;;;;;;;26.46;45.66;101116.00;1727864;81;21440;-50
2022/07/26 02:40:42;;;;;;;4.28;2.65;;;;;;;26.44;46.13;101115.27;1731252;81;20971;-52
2022/07/26 02:43:08;;;;;;;2.85;2.30;;;;;;;26.43;45.72;101120.23;1732279;81;21480;-51
2022/07/26 02:45:35;;;;;;;4.97;2.40;;;;;;;26.42;45.80;101123.38;1733821;81;21003;-50
2022/07/26 02:48:02;;;;;;;2.95;2.08;;;;;;;26.40;45.94;101117.33;1734419;81;21489;-50
2022/07/26 02:50:29;;;;;;;2.70;2.50;;;;;;;26.40;46.11;101120.47;1733691;81;21023;-50
2022/07/26 02:52:56;;;;;;;3.83;2.33;;;;;;;26.39;45.74;101112.13;1732206;81;21016;-49
2022/07/26 02:55:24;;;;;;;3.08;2.67;;;;;;;26.39;46.07;101112.13;1733266;81;21075;-52
2022/07/26 02:57:50;;;;;;;4.45;2.65;;;;;;;26.38;46.03;101114.41;1696114;84;20959;-50
2022/07/26 03:00:21;;;;;;;3.25;2.70;;;;;;;26.37;45.74;101119.41;1735929;81;21063;-49
2022/07/26 03:02:49;;;;;;;5.53;2.47;;;;;;;26.36;45.93;101121.70;1700606;84;20983;-53
2022/07/26 03:05:17;;;;;;;2.70;2.50;;;;;;;26.38;45.81;101118.41;1698088;84;21025;-51
2022/07/26 03:07:43;;;;;;;7.75;2.58;;;;;;;26.37;45.70;101114.07;1697797;83;21038;-50
2022/07/26 03:10:10;;;;;;;3.65;2.47;;;;;;;26.34;45.56;101114.30;1697746;84;21031;-50
2022/07/26 03:12:37;;;;;;;7.08;2.33;;;;;;;26.32;45.45;101118.91;1697100;84;21050;-49
2022/07/26 03:15:05;;;;;;;2.70;2.25;;;;;;;26.29;45.12;101120.52;1697801;84;21022;-52
2022/07/26 03:17:32;;;;;;;5.55;2.55;;;;;;;26.26;45.58;101112.27;1732893;81;21064;-49
2022/07/26 03:19:59;;;;;;;6.22;3.20;;;;;;;26.25;45.60;101115.07;1732364;81;21484;-51
2022/07/26 03:22:25;;;;;;;4.33;2.50;;;;;;;26.23;45.57;101115.69;1733914;82;21078;-56
2022/07/26 03:24:52;;;;;;;6.67;2.37;;;;;;;26.22;46.08;101117.97;1735050;81;21531;-51
2022/07/26 03:27:19;;;;;;;3.65;2.17;;;;;;;26.22;45.93;101112.64;1700302;84;21035;-50
2022/07/26 03:29:45;;;;;;;2.50;2.27;;;;;;;26.20;45.91;101118.11;1698853;84;21455;-53
2022/07/26 03:32:12;;;;;;;4.85;2.80;;;;;;;26.21;45.92;101106.95;1697796;84;21058;-52
2022/07/26 03:34:39;;;;;;;2.52;2.20;;;;;;;26.20;46.13;101114.11;1731133;81;21499;-51
2022/07/26 03:37:06;;;;;;;3.37;2.30;;;;;;;26.23;46.12;101111.68;1731533;81;21015;-49
2022/07/26 03:39:32;;;;;;;4.12;2.70;;;;;;;26.28;46.06;101114.80;1731842;81;21022;-51
2022/07/26 03:41:59;;;;;;;8.40;3.05;;;;;;;26.37;46.06;101116.73;1728020;81;21015;-52
2022/07/26 03:44:26;;;;;;;8.33;2.42;;;;;;;26.45;45.74;101113.81;1730592;82;21079;-50
2022/07/26 03:46:52;;;;;;;5.30;2.52;;;;;;;26.55;45.69;101108.55;1734934;80;21019;-52
2022/07/26 03:49:19;;;;;;;3.25;2.50;;;;;;;26.65;45.31;101110.81;1732936;81;21058;-50
2022/07/26 03:51:46;;;;;;;3.45;2.80;;;;;;;26.73;45.19;101111.05;1697084;84;21010;-50
2022/07/26 03:54:13;;;;;;;3.30;2.60;;;;;;;26.83;45.20;101111.97;1697677;84;20991;-51
2022/07/26 03:56:40;;;;;;;4.25;2.85;;;;;;;26.94;45.08;101109.27;1698306;83;21502;-50
2022/07/26 03:59:08;;;;;;;3.72;2.17;;;;;;;27.10;45.09;101112.33;1697264;84;21029;-49
2022/07/26 04:01:40;;;;;;;3.10;2.10;;;;;;;27.35;44.68;101107.09;1699641;83;22193;-52
2022/07/26 04:04:04;;;;;;;3.92;2.40;;;;;;;27.73;43.46;101102.45;1684930;84;21046;-48
2022/07/26 04:06:32;;;;;;;2.77;2.35;;;;;;;28.07;42.38;101102.52;1700478;84;21017;-51
2022/07/26 04:08:59;;;;;;;4.28;2.27;;;;;;;28.19;41.97;101113.48;1738981;81;21696;-51
2022/07/26 04:11:25;;;;;;;4.37;2.67;;;;;;;28.16;41.73;101111.07;1733204;81;21057;-52
2022/07/26 04:13:52;;;;;;;3.70;2.10;;;;;;;28.07;42.09;101111.87;1733553;82;21015;-52
2022/07/26 04:16:19;;;;;;;4.37;2.20;;;;;;;27.95;42.03;101108.44;1724013;81;21005;-53
2022/07/26 04:18:45;;;;;;;5.72;2.27;;;;;;;27.84;42.17;101110.38;1732621;81;20995;-53
2022/07/26 04:21:12;;;;;;;3.72;2.50;;;;;;;27.72;42.38;101124.83;1730475;82;20995;-53
2022/07/26 04:23:39;;;;;;;4.95;2.12;;;;;;;27.56;42.39;101122.63;1735526;80;21023;-51
2022/07/26 04:26:05;;;;;;;4.62;2.45;;;;;;;27.42;42.71;101125.66;1734709;81;21019;-52
2022/07/26 04:28:32;;;;;;;2.65;2.45;;;;;;;27.30;42.79;101126.19;1698373;84;21018;-53
2022/07/26 04:30:59;;;;;;;5.12;2.67;;;;;;;27.18;42.69;101119.71;1697186;83;21046;-51
2022/07/26 04:33:26;;;;;;;5.30;2.55;;;;;;;27.09;42.96;101121.33;1698189;83;20995;-55
2022/07/26 04:35:53;;;;;;;2.25;1.90;;;;;;;26.97;42.95;101125.05;1697988;83;21061;-53
2022/07/26 04:38:19;;;;;;;2.75;1.90;;;;;;;26.87;43.30;101121.45;1694899;84;21034;-52
2022/07/26 04:40:46;;;;;;;3.77;2.33;;;;;;;26.80;43.55;101130.94;1734297;82;21011;-49
2022/07/26 04:43:12;;;;;;;5.12;2.02;;;;;;;26.73;43.32;101127.07;1734425;81;21007;-52
2022/07/26 04:45:39;;;;;;;2.77;2.08;;;;;;;26.66;43.69;101125.88;1722995;81;21015;-50
2022/07/26 04:48:06;;;;;;;3.40;2.22;;;;;;;26.61;44.23;101126.25;1732990;81;20988;-54
2022/07/26 04:50:33;;;;;;;3.58;2.17;;;;;;;26.61;44.23;101128.06;1700785;84;21030;-53
2022/07/26 04:53:00;;;;;;;3.05;2.60;;;;;;;26.57;44.11;101125.28;1731962;81;21078;-52
2022/07/26 04:55:27;;;;;;;3.22;1.87;;;;;;;26.55;44.13;101125.89;1733384;81;21496;-49
2022/07/26 04:57:53;;;;;;;2.33;2.12;;;;;;;26.52;44.17;101120.83;1731950;82;21031;-52
2022/07/26 05:00:22;;;;;;;3.12;1.90;;;;;;;26.52;44.17;101123.50;1736295;81;21047;-50
2022/07/26 05:02:55;;;;;;;2.58;2.10;;;;;;;26.49;43.79;101133.93;1700708;84;21018;-51
2022/07/26 05:05:23;;;;;;;2.58;2.02;;;;;;;26.47;43.85;101131.02;1732798;81;21590;-49
2022/07/26 05:07:52;;;;;;;4.58;2.25;;;;;;;26.47;43.94;101137.69;1730185;81;21076;-50
2022/07/26 05:10:19;;;;;;;3.92;2.10;;;;;;;26.47;44.20;101131.02;1730808;81;21069;-51
2022/07/26 05:12:46;;;;;;;2.80;1.75;;;;;;;26.49;44.41;101134.41;1729411;81;21102;-49
2022/07/26 05:15:13;;;;;;;2.00;1.85;;;;;;;26.49;44.16;101130.41;1722781;81;21024;-53
2022/07/26 05:17:41;;;;;;;2.92;2.12;;;;;;;26.51;44.22;101133.80;1726985;82;21020;-52
2022/07/26 05:20:10;;;;;;;2.70;2.22;;;;;;;26.55;44.39;101134.76;1730973;82;21035;-51
2022/07/26 05:22:37;;;;;;;4.15;2.08;;;;;;;26.62;44.46;101137.77;1731237;81;21004;-52
2022/07/26 05:25:05;;;;;;;3.80;1.90;;;;;;;26.73;44.49;101140.42;1727675;81;21032;-53
2022/07/26 05:27:32;;;;;;;5.08;2.10;;;;;;;26.86;44.07;101138.44;1727827;81;21028;-50
2022/07/26 05:29:59;;;;;;;2.37;1.75;;;;;;;27.04;43.75;101145.37;1727990;81;21064;-52
2022/07/26 05:32:27;;;;;;;4.12;2.10;;;;;;;27.21;43.57;101144.33;1731210;81;21011;-49
2022/07/26 05:34:53;;;;;;;2.05;1.85;;;;;;;27.37;43.17;101144.75;1724701;81;21536;-52
2022/07/26 05:37:20;;;;;;;2.08;1.75;;;;;;;27.56;42.63;101148.51;1730991;81;20997;-53
2022/07/26 05:39:47;;;;;;;3.72;2.10;;;;;;;27.73;42.14;101142.55;1731269;81;20992;-52
2022/07/26 05:42:13;;;;;;;2.95;1.90;;;;;;;27.89;41.93;101149.59;1728922;81;21068;-51
2022/07/26 05:44:40;;;;;;;5.08;1.85;;;;;;;28.03;41.70;101138.06;1729694;81;21071;-49
2022/07/26 05:47:07;;;;;;;3.45;2.40;;;;;;;28.17;41.42;101145.70;1729910;82;21053;-50
2022/07/26 05:49:34;;;;;;;2.87;2.10;;;;;;;28.31;41.09;101147.17;1731058;81;21025;-51
2022/07/26 05:52:01;;;;;;;2.10;1.90;;;;;;;28.41;40.88;101145.36;1729343;81;21532;-49
2022/07/26 05:54:27;;;;;;;4.87;2.55;;;;;;;28.48;40.60;101146.48;1728294;81;21044;-54
2022/07/26 05:56:54;;;;;;;1.72;1.62;;;;;;;28.54;40.47;101144.59;1728067;81;21526;-50
2022/07/26 05:59:21;;;;;;;3.60;1.90;;;;;;;28.61;40.31;101136.39;1728692;81;21022;-49
2022/07/26 06:01:47;;;;;;;4.92;1.87;;;;;;;28.68;40.35;101144.73;1728451;81;21053;-51
2022/07/26 06:04:14;;;;;;;2.72;1.72;;;;;;;28.76;40.25;101148.89;1730516;81;21498;-51
2022/07/26 06:06:41;;;;;;;8.68;2.17;;;;;;;28.80;40.01;101147.13;1731636;81;21006;-55
2022/07/26 06:09:07;;;;;;;3.25;2.30;;;;;;;28.88;40.03;101142.40;1731437;81;21029;-50
2022/07/26 06:11:34;;;;;;;2.12;1.82;;;;;;;29.00;39.95;101133.74;1728744;81;21066;-50
2022/07/26 06:14:01;;;;;;;4.47;2.08;;;;;;;29.15;39.47;101129.65;1733225;81;21078;-50
2022/07/26 06:16:28;;;;;;;3.25;2.30;;;;;;;29.30;39.31;101136.27;1698990;84;21029;-52
2022/07/26 06:18:54;;;;;;;3.58;1.87;;;;;;;29.48;38.98;101131.84;1697809;84;21006;-50
2022/07/26 06:21:21;;;;;;;2.22;1.92;;;;;;;29.60;38.79;101126.16;1697732;84;21483;-55
2022/07/26 06:23:48;;;;;;;1.72;1.62;;;;;;;29.69;38.57;101123.95;1703292;84;21062;-53
2022/07/26 06:26:15;;;;;;;2.12;1.90;;;;;;;29.73;38.52;101121.36;1697863;84;21022;-50
2022/07/26 06:28:42;;;;;;;2.58;1.75;;;;;;;29.73;37.97;101113.80;1700337;84;21570;-50
2022/07/26 06:31:09;;;;;;;3.70;1.98;;;;;;;29.71;38.12;101115.75;1734437;81;21078;-54
2022/07/26 06:33:36;;;;;;;2.00;1.75;;;;;;;29.70;38.23;101110.02;1699712;84;21868;-51
2022/07/26 06:36:03;;;;;;;2.30;2.10;;;;;;;29.69;37.96;101111.87;1699888;83;21001;-54
2022/07/26 06:38:29;;;;;;;2.87;1.92;;;;;;;29.69;38.14;101102.98;1733414;81;21031;-53
2022/07/26 06:40:56;;;;;;;3.15;1.82;;;;;;;29.65;38.17;101105.13;1734428;82;20983;-53
2022/07/26 06:43:23;;;;;;;4.33;2.20;;;;;;;29.62;38.31;101110.77;1721407;81;21606;-53
2022/07/26 06:45:50;;;;;;;4.75;1.90;;;;;;;29.60;38.57;101108.73;1734818;81;21098;-52
2022/07/26 06:48:16;;;;;;;2.22;2.02;;;;;;;29.60;38.33;101109.22;1733048;81;21501;-52
2022/07/26 06:50:43;;;;;;;5.62;2.30;;;;;;;29.58;38.54;101109.37;1732702;81;21006;-52
2022/07/26 06:53:10;;;;;;;2.55;1.92;;;;;;;29.56;38.88;101105.14;1733990;81;21051;-50
2022/07/26 06:55:36;;;;;;;2.92;1.85;;;;;;;29.52;38.88;101101.06;1734491;81;21031;-50
2022/07/26 06:58:03;;;;;;;4.83;2.47;;;;;;;29.49;38.77;101106.73;1734375;81;21027;-53
2022/07/26 07:00:30;;;;;;;2.42;1.77;;;;;;;29.47;38.59;101106.03;1732801;81;21015;-51
2022/07/26 07:02:57;;;;;;;4.47;2.22;;;;;;;29.50;38.46;101097.68;1731112;81;21070;-50
2022/07/26 07:05:23;;;;;;;2.67;1.95;;;;;;;29.53;38.07;101098.75;1731850;81;20999;-51
2022/07/26 07:07:50;;;;;;;3.00;1.95;;;;;;;29.56;37.84;101091.73;1731870;81;21019;-53
2022/07/26 07:10:17;;;;;;;2.12;1.82;;;;;;;29.61;37.81;101096.17;1731480;81;21011;-52
2022/07/26 07:12:44;;;;;;;2.08;1.50;;;;;;;29.66;37.19;101095.22;1733182;81;21054;-51
2022/07/26 07:15:11;;;;;;;2.47;1.50;;;;;;;29.74;37.29;101093.52;1730048;82;21529;-51
2022/07/26 07:17:38;;;;;;;1.72;1.60;;;;;;;29.91;37.16;101097.75;1692120;84;21074;-51
2022/07/26 07:20:06;;;;;;;3.10;1.50;;;;;;;30.11;36.66;101089.44;1703231;84;21014;-51
2022/07/26 07:22:33;;;;;;;1.67;1.57;;;;;;;30.40;36.42;101087.45;1706401;84;21529;-51
2022/07/26 07:25:00;;;;;;;1.45;1.35;;;;;;;30.71;35.18;101090.59;1697883;84;21503;-56
2022/07/26 07:27:27;;;;;;;1.72;1.62;;;;;;;30.98;34.52;101093.20;1695737;84;21026;-52
2022/07/26 07:29:53;;;;;;;1.75;1.47;;;;;;;31.17;33.36;101096.20;1708072;83;21010;-51
2022/07/26 07:32:20;;;;;;;1.87;1.50;;;;;;;31.26;32.89;101088.02;1704351;83;20983;-52
2022/07/26 07:34:47;;;;;;;3.52;1.40;;;;;;;31.30;32.65;101093.95;1752528;80;20995;-53
2022/07/26 07:37:15;;;;;;;2.25;1.70;;;;;;;31.28;32.46;101090.58;1734409;81;21445;-50
2022/07/26 07:39:42;;;;;;;3.35;1.50;;;;;;;31.25;32.47;101096.25;1736479;80;21006;-50
2022/07/26 07:42:09;;;;;;;2.45;1.52;;;;;;;31.21;32.52;101094.88;1733817;80;21019;-51
2022/07/26 07:44:37;;;;;;;4.60;1.57;;;;;;;31.20;32.62;101097.25;1739967;80;20967;-55
2022/07/26 07:47:05;;;;;;;2.60;1.65;;;;;;;31.17;32.64;101094.86;1704490;84;20990;-49
2022/07/26 07:49:31;;;;;;;2.98;1.60;;;;;;;31.14;33.03;101096.01;1755327;81;21083;-49
2022/07/26 07:51:58;;;;;;;2.12;1.67;;;;;;;31.09;33.81;101101.52;1730515;80;21046;-52
2022/07/26 07:54:25;;;;;;;6.80;1.72;;;;;;;31.04;34.65;101093.07;1741644;80;21082;-51
2022/07/26 07:56:55;;;;;;;1.77;1.50;;;;;;;31.01;34.92;101091.56;1728912;81;21047;-50
2022/07/26 07:59:22;;;;;;;2.40;1.70;;;;;;;30.96;34.52;101094.36;1734623;81;21031;-52
2022/07/26 08:01:49;;;;;;;2.27;1.67;;;;;;;30.93;34.25;101090.66;1699631;84;21458;-53
2022/07/26 08:04:16;;;;;;;2.22;1.50;;;;;;;30.90;33.68;101090.95;1705531;84;21045;-50
2022/07/26 08:06:43;;;;;;;2.27;1.47;;;;;;;30.88;34.37;101090.26;1739547;80;21523;-52
2022/07/26 08:09:09;;;;;;;1.90;1.25;;;;;;;30.84;34.31;101086.17;1701934;82;21050;-52
2022/07/26 08:11:36;;;;;;;1.77;1.62;;;;;;;30.81;34.64;101082.46;1701670;84;21534;-51
2022/07/26 08:14:03;;;;;;;1.60;1.22;;;;;;;30.81;34.78;101091.34;1702333;84;21093;-53
2022/07/26 08:16:30;;;;;;;2.15;1.40;;;;;;;30.82;34.81;101084.14;1751113;80;21487;-52
2022/07/26 08:18:57;;;;;;;2.25;1.62;;;;;;;30.81;35.10;101090.52;1729994;82;21035;-51
2022/07/26 08:21:24;;;;;;;1.92;1.40;;;;;;;30.82;34.67;101086.82;1731058;81;21008;-53
2022/07/26 08:23:52;;;;;;;2.85;1.37;;;;;;;30.83;34.62;101089.87;1735913;80;21050;-51
2022/07/26 08:26:19;;;;;;;2.70;1.70;;;;;;;30.86;34.51;101092.26;1751111;80;20984;-53
2022/07/26 08:28:47;;;;;;;2.60;1.40;;;;;;;30.88;34.26;101090.26;1739123;80;21054;-54
2022/07/26 08:31:15;;;;;;;2.08;1.35;;;;;;;30.92;34.57;101088.95;1741826;80;21110;-51
2022/07/26 08:33:42;;;;;;;1.27;0.90;;;;;;;30.92;34.59;101076.36;1737958;80;21480;-52
2022/07/26 08:36:09;;;;;;;5.22;1.70;;;;;;;30.94;33.30;101078.89;1704670;84;21526;-52
2022/07/26 08:38:36;;;;;;;1.00;1.00;;;;;;;30.97;32.44;101078.59;1703597;84;21059;-51
2022/07/26 08:41:02;;;;;;;1.27;1.10;;;;;;;30.99;33.16;101081.96;1703238;84;21054;-51
2022/07/26 08:43:29;;;;;;;1.60;1.20;;;;;;;31.02;33.56;101082.97;1698981;84;21061;-51
2022/07/26 08:46:03;;;;;;;1.82;1.20;;;;;;;31.06;34.02;101080.31;1686465;84;21543;-50
2022/07/26 08:48:29;;;;;;;1.77;1.22;;;;;;;31.11;34.19;101080.70;1699978;84;21042;-50
2022/07/26 08:50:57;;;;;;;1.60;1.47;;;;;;;31.18;34.41;101084.46;1701500;84;21024;-51
2022/07/26 08:53:23;;;;;;;3.52;1.50;;;;;;;31.21;34.55;101084.13;1704181;84;20987;-54
2022/07/26 08:55:56;;;;;;;2.52;1.20;;;;;;;31.27;34.93;101082.16;1697786;84;21518;-52
2022/07/26 08:58:23;;;;;;;1.30;1.20;;;;;;;31.31;35.34;101082.17;1694990;84;21018;-52
2022/07/26 09:01:11;;;;;;;1.42;1.20;;;;;;;31.35;35.06;101087.58;1699018;83;21010;-52
2022/07/26 09:03:39;;;;;;;1.42;1.32;;;;;;;31.39;35.11;101084.94;1691442;83;21011;-53
2022/07/26 09:06:19;;;;;;;1.27;1.17;;;;;;;31.44;34.79;101088.50;1691976;83;21042;-50
2022/07/26 09:08:50;;;;;;;2.25;0.98;;;;;;;31.46;34.65;101086.01;1699520;83;21515;-55
2022/07/26 09:11:27;;;;;;;3.22;1.27;;;;;;;31.49;33.81;101088.36;1691264;84;20979;-50
2022/07/26 09:14:02;;;;;;;1.52;0.90;;;;;;;31.54;32.92;101086.05;1692208;83;21054;-50
2022/07/26 09:16:29;;;;;;;1.20;1.02;;;;;;;31.60;32.28;101088.09;1690072;83;21149;-51
2022/07/26 09:19:21;;;;;;;1.55;1.00;;;;;;;31.66;31.50;101086.59;1691548;83;21090;-52
2022/07/26 09:21:47;;;;;;;1.67;1.25;;;;;;;31.70;32.30;101088.81;1692231;84;21055;-54
2022/07/26 09:24:32;;;;;;;3.52;1.40;;;;;;;31.78;32.29;101085.34;1691165;83;21574;-50
2022/07/26 09:26:59;;;;;;;2.90;1.65;;;;;;;31.84;32.04;101090.07;1693914;83;21091;-52
2022/07/26 09:32:15;;;;;;;6.40;2.30;;;;;;;31.98;34.24;101086.79;1641683;86;21114;-49
2022/07/26 09:34:40;;;;;;;12.55;2.12;;;;;;;32.04;34.86;101084.30;1579421;89;21079;-50
2022/07/26 09:37:07;;;;;;;4.20;1.55;;;;;;;32.06;34.67;101084.97;1578673;89;21126;-51
2022/07/26 09:39:59;;;;;;;17.48;1.98;;;;;;;32.12;34.19;101092.03;1585275;89;21062;-49
2022/07/26 09:42:27;;;;;;;16.30;2.30;;;;;;;32.15;32.98;101091.72;1600813;88;21009;-56
2022/07/26 09:44:55;;;;;;;7.97;2.33;;;;;;;32.21;34.11;101085.19;1596430;88;21025;-52
2022/07/26 09:47:22;;;;;;;4.22;1.52;;;;;;;32.28;34.35;101085.34;1596074;88;21080;-56
2022/07/26 09:49:48;;;;;;;4.47;2.00;;;;;;;32.33;34.60;101083.01;1598341;88;21073;-51
2022/07/26 09:52:20;;;;;;;2.33;1.80;;;;;;;32.38;34.92;101075.25;1600694;88;21052;-53
2022/07/26 09:54:48;;;;;;;2.17;1.62;;;;;;;32.43;35.24;101075.61;1595697;88;21044;-49
2022/07/26 09:57:19;;;;;;;4.17;1.52;;;;;;;32.47;35.47;101078.34;1602728;88;21552;-48
2022/07/26 09:59:46;;;;;;;2.25;1.40;;;;;;;32.48;35.53;101076.00;1602127;88;21165;-49
2022/07/26 10:02:14;;;;;;;8.90;2.35;;;;;;;32.50;35.65;101075.34;1597809;88;21677;-51
2022/07/26 10:04:41;;;;;;;3.35;1.47;;;;;;;32.49;35.89;101075.83;1609611;88;21104;-50
2022/07/26 10:07:10;;;;;;;1.77;1.42;;;;;;;32.49;36.02;101078.52;1607169;88;21048;-51
2022/07/26 10:09:51;;;;;;;1.60;1.50;;;;;;;32.48;36.19;101078.70;1552011;91;21138;-52
2022/07/26 10:12:19;;;;;;;2.20;1.47;;;;;;;32.50;36.78;101073.98;1554762;91;21133;-52
2022/07/26 10:14:48;;;;;;;2.00;1.62;;;;;;;32.54;37.05;101072.64;1526315;91;21738;-52
2022/07/26 10:17:40;;;;;;;6.65;2.08;;;;;;;32.58;37.06;101069.42;1548801;91;21173;-54
2022/07/26 10:20:13;;;;;;;2.77;1.47;;;;;;;32.62;36.06;101069.95;1534592;92;21088;-51
2022/07/26 10:22:46;;;;;;;3.33;1.42;;;;;;;32.66;35.19;101067.25;1539717;93;21053;-52
2022/07/26 10:25:21;;;;;;;2.70;1.57;;;;;;;32.69;36.19;101065.55;1543724;91;21084;-52
2022/07/26 10:27:54;;;;;;;1.77;1.50;;;;;;;32.70;36.25;101059.17;1541013;92;21065;-51
2022/07/26 10:30:23;;;;;;;2.10;1.40;;;;;;;32.73;35.93;101062.86;1562397;88;21053;-55
2022/07/26 10:33:12;;;;;;;1.62;1.27;;;;;;;32.75;35.75;101059.49;1597861;89;21074;-51
2022/07/26 10:35:42;;;;;;;5.25;1.50;;;;;;;32.77;35.48;101059.66;1621226;88;21030;-51
2022/07/26 10:38:21;;;;;;;1.98;1.40;;;;;;;32.79;35.15;101058.14;1620667;88;21050;-51
2022/07/26 10:43:34;;;;;;;2.10;1.37;;;;;;;32.80;35.34;101062.53;1580791;89;21116;-49
2022/07/26 10:46:22;;;;;;;1.32;1.20;;;;;;;32.83;35.45;101055.44;1594602;89;21787;-52
2022/07/26 10:48:58;;;;;;;2.10;1.30;;;;;;;32.87;35.51;101047.38;1591320;88;21074;-50
2022/07/26 10:51:33;;;;;;;2.47;1.60;;;;;;;32.91;35.30;101047.37;1593094;88;21042;-51
2022/07/26 10:54:04;;;;;;;1.87;1.55;;;;;;;32.92;35.90;101044.16;1570953;90;21110;-52
2022/07/26 10:56:31;;;;;;;3.52;1.60;;;;;;;32.91;35.65;101046.03;1591132;88;21112;-49
2022/07/26 10:58:58;;;;;;;2.65;1.40;;;;;;;32.91;35.49;101048.73;1601890;88;21642;-51
2022/07/26 11:01:40;;;;;;;2.02;1.47;;;;;;;32.91;35.43;101051.42;1599497;88;21127;-49
2022/07/26 11:04:23;;;;;;;1.55;1.40;;;;;;;32.88;35.33;101046.36;1565964;90;21569;-50
2022/07/26 11:06:52;;;;;;;1.42;1.22;;;;;;;32.86;35.33;101051.08;1637659;85;21014;-50
2022/07/26 11:09:18;;;;;;;1.80;1.47;;;;;;;32.84;35.05;101051.25;1677992;84;21028;-51
2022/07/26 11:11:45;;;;;;;1.32;1.22;;;;;;;32.83;35.24;101048.20;1679473;84;21054;-50
2022/07/26 11:14:14;;;;;;;2.58;1.30;;;;;;;32.84;35.06;101046.36;1678342;84;21104;-53
2022/07/26 11:16:46;;;;;;;1.67;1.37;;;;;;;32.83;34.65;101047.36;1673888;84;21038;-51
2022/07/26 11:19:23;;;;;;;1.90;1.37;;;;;;;32.83;35.20;101048.70;1680122;84;21011;-51
2022/07/26 11:21:56;;;;;;;2.70;1.32;;;;;;;32.81;34.40;101053.42;1681011;84;21078;-51
2022/07/26 11:24:22;;;;;;;2.27;1.30;;;;;;;32.81;34.78;101050.73;1682163;85;21066;-51
2022/07/26 11:26:50;;;;;;;3.37;1.50;;;;;;;32.80;35.78;101046.36;1681204;84;21082;-51
2022/07/26 11:29:25;;;;;;;2.85;1.65;;;;;;;32.79;35.96;101044.66;1682705;84;21030;-50
2022/07/26 11:31:52;;;;;;;3.83;1.70;;;;;;;32.78;35.86;101047.04;1668678;84;21046;-54
2022/07/26 11:34:22;;;;;;;2.02;1.55;;;;;;;32.77;35.94;101042.15;1682537;84;21093;-50